createdAt,value
2023-09-18T00:01:56.309Z,16.31
2023-09-18T00:04:24.182Z,16.27
2023-09-18T00:06:51.927Z,16.24
2023-09-18T00:09:20.054Z,16.20
2023-09-18T00:11:49.086Z,16.17
2023-09-18T00:14:17.114Z,16.13
2023-09-18T00:16:58.007Z,16.09
2023-09-18T00:19:26.938Z,16.05
2023-09-18T00:21:55.590Z,16.01
2023-09-18T00:24:23.752Z,15.97
2023-09-18T00:26:53.972Z,15.92
2023-09-18T00:29:22.224Z,15.88
2023-09-18T00:31:51.159Z,15.84
2023-09-18T00:34:19.052Z,15.80
2023-09-18T00:36:46.764Z,15.75
2023-09-18T00:39:15.621Z,15.72
2023-09-18T00:41:43.973Z,15.67
2023-09-18T00:44:11.764Z,15.65
2023-09-18T00:46:39.433Z,15.64
2023-09-18T00:49:07.528Z,15.62
2023-09-18T00:51:35.665Z,15.62
2023-09-18T00:54:03.591Z,15.62
2023-09-18T00:56:31.987Z,15.62
2023-09-18T00:59:01.041Z,15.59
2023-09-18T01:01:28.851Z,15.56
2023-09-18T01:03:57.563Z,15.53
2023-09-18T01:06:28.986Z,15.50
2023-09-18T01:08:56.790Z,15.48
2023-09-18T01:11:37.422Z,15.46
2023-09-18T01:14:15.572Z,15.44
2023-09-18T01:16:58.151Z,15.43
2023-09-18T01:19:37.787Z,15.42
2023-09-18T01:36:09.663Z,15.40
2023-09-18T01:38:38.059Z,15.43
2023-09-18T01:41:05.857Z,15.46
2023-09-18T01:43:33.958Z,15.49
2023-09-18T01:46:01.649Z,15.50
2023-09-18T01:48:30.332Z,15.52
2023-09-18T01:50:58.122Z,15.53
2023-09-18T01:53:27.660Z,15.55
2023-09-18T01:55:55.451Z,15.56
2023-09-18T01:58:23.213Z,15.56
2023-09-18T02:00:51.366Z,15.56
2023-09-18T02:03:41.398Z,15.57
2023-09-18T02:06:09.888Z,15.58
2023-09-18T02:08:38.050Z,15.59
2023-09-18T02:11:05.897Z,15.60
2023-09-18T02:13:33.680Z,15.60
2023-09-18T02:16:01.346Z,15.61
2023-09-18T02:18:30.437Z,15.63
2023-09-18T02:20:58.382Z,15.64
2023-09-18T02:23:26.195Z,15.66
2023-09-18T02:26:00.389Z,15.67
2023-09-18T02:28:28.224Z,15.68
2023-09-18T02:30:55.868Z,15.68
2023-09-18T02:33:23.607Z,15.69
2023-09-18T02:35:51.707Z,15.70
2023-09-18T02:38:19.789Z,15.71
2023-09-18T02:52:23.832Z,15.81
2023-09-18T02:54:52.031Z,15.82
2023-09-18T02:57:20.174Z,15.84
2023-09-18T02:59:48.040Z,15.85
2023-09-18T03:02:16.128Z,15.87
2023-09-18T03:04:43.899Z,15.88
2023-09-18T03:07:14.578Z,15.90
2023-09-18T03:09:42.415Z,15.90
2023-09-18T03:12:10.308Z,15.91
2023-09-18T03:14:38.048Z,15.92
2023-09-18T03:17:06.077Z,15.93
2023-09-18T03:19:33.813Z,15.94
2023-09-18T03:22:02.833Z,15.95
2023-09-18T03:24:31.582Z,15.96
2023-09-18T03:26:59.559Z,15.96
2023-09-18T03:29:28.327Z,15.96
2023-09-18T03:31:59.176Z,15.97
2023-09-18T03:34:28.222Z,15.98
2023-09-18T03:36:56.801Z,15.99
2023-09-18T03:39:24.712Z,16.00
2023-09-18T03:41:52.404Z,16.01
2023-09-18T03:44:20.101Z,16.02
2023-09-18T03:46:48.035Z,16.02
2023-09-18T03:49:15.762Z,16.02
2023-09-18T04:03:01.477Z,16.09
2023-09-18T04:05:30.089Z,16.12
2023-09-18T04:08:00.243Z,16.13
2023-09-18T04:10:28.292Z,16.16
2023-09-18T04:12:55.991Z,16.18
2023-09-18T04:15:24.178Z,16.19
2023-09-18T04:17:51.904Z,16.21
2023-09-18T04:20:20.053Z,16.23
2023-09-18T04:22:51.033Z,16.24
2023-09-18T04:25:20.850Z,16.26
2023-09-18T04:27:51.678Z,16.27
2023-09-18T04:30:20.949Z,16.28
2023-09-18T04:32:49.235Z,16.29
2023-09-18T04:35:17.154Z,16.30
2023-09-18T04:37:44.928Z,16.31
2023-09-18T04:40:13.348Z,16.32
2023-09-18T04:42:41.995Z,16.33
2023-09-18T04:45:10.417Z,16.33
2023-09-18T04:47:38.757Z,16.35
2023-09-18T04:50:10.127Z,16.35
2023-09-18T04:52:44.900Z,16.35
2023-09-18T04:55:15.426Z,16.36
2023-09-18T04:57:43.164Z,16.37
2023-09-18T05:00:18.127Z,16.38
2023-09-18T05:02:46.674Z,16.39
2023-09-18T05:05:15.395Z,16.40
2023-09-18T05:07:43.974Z,16.41
2023-09-18T05:10:12.155Z,16.42
2023-09-18T05:12:41.435Z,16.43
2023-09-18T05:15:11.003Z,16.46
2023-09-18T05:17:43.745Z,16.48
2023-09-18T05:20:17.985Z,16.49
2023-09-18T05:22:46.728Z,16.51
2023-09-18T05:25:18.119Z,16.53
2023-09-18T05:27:46.423Z,16.56
2023-09-18T05:30:16.889Z,16.58
2023-09-18T05:32:46.602Z,16.61
2023-09-18T05:35:15.431Z,16.64
2023-09-18T05:37:43.309Z,16.67
2023-09-18T05:40:13.807Z,16.71
2023-09-18T05:42:44.594Z,16.76
2023-09-18T05:45:14.279Z,16.81
2023-09-18T05:47:43.753Z,16.86
2023-09-18T05:50:17.365Z,16.90
2023-09-18T05:52:46.575Z,16.97
2023-09-18T05:55:15.949Z,17.04
2023-09-18T05:57:43.716Z,17.12
2023-09-18T06:00:16.636Z,17.18
2023-09-18T06:02:45.595Z,17.23
2023-09-18T06:05:13.821Z,17.26
2023-09-18T06:07:41.822Z,17.31
2023-09-18T06:10:10.355Z,17.39
2023-09-18T06:12:40.542Z,17.49
2023-09-18T06:15:12.853Z,17.62
2023-09-18T06:17:44.133Z,17.77
2023-09-18T06:20:17.120Z,17.91
2023-09-18T06:22:45.276Z,18.04
2023-09-18T06:25:14.399Z,18.17
2023-09-18T06:27:42.952Z,18.32
2023-09-18T06:30:11.128Z,18.49
2023-09-18T06:32:39.212Z,18.67
2023-09-18T06:35:07.550Z,18.84
2023-09-18T06:37:35.638Z,19.02
2023-09-18T06:40:05.174Z,19.18
2023-09-18T06:42:34.087Z,19.32
2023-09-18T06:45:02.992Z,19.47
2023-09-18T06:47:31.261Z,19.63
2023-09-18T06:50:01.125Z,19.80
2023-09-18T06:52:29.349Z,19.99
2023-09-18T06:54:59.044Z,20.18
2023-09-18T06:57:27.157Z,20.36
2023-09-18T06:59:55.444Z,20.52
2023-09-18T07:02:23.297Z,20.70
2023-09-18T07:04:51.176Z,20.87
2023-09-18T07:07:25.938Z,21.05
2023-09-18T07:10:04.556Z,21.22
2023-09-18T07:12:34.179Z,21.37
2023-09-18T07:15:05.165Z,21.54
2023-09-18T07:17:34.962Z,21.73
2023-09-18T07:20:10.926Z,21.90
2023-09-18T07:36:47.507Z,23.15
2023-09-18T07:39:14.735Z,23.27
2023-09-18T07:41:41.444Z,23.37
2023-09-18T07:44:07.806Z,23.46
2023-09-18T07:46:34.496Z,23.61
2023-09-18T07:49:01.126Z,23.76
2023-09-18T07:51:28.508Z,23.87
2023-09-18T07:53:55.136Z,23.97
2023-09-18T07:56:21.930Z,24.08
2023-09-18T07:58:48.447Z,24.19
2023-09-18T08:01:16.986Z,24.30
2023-09-18T08:03:43.545Z,24.40
2023-09-18T08:06:12.279Z,24.50
2023-09-18T08:08:40.029Z,24.63
2023-09-18T08:11:09.575Z,24.79
2023-09-18T08:13:38.924Z,24.97
2023-09-18T08:16:07.325Z,25.16
2023-09-18T08:18:34.009Z,25.35
2023-09-18T08:21:00.851Z,25.52
2023-09-18T08:23:27.925Z,25.72
2023-09-18T08:25:57.867Z,25.97
2023-09-18T08:28:24.244Z,26.28
2023-09-18T08:30:50.647Z,26.64
2023-09-18T08:33:17.203Z,26.95
2023-09-18T08:35:45.198Z,27.20
2023-09-18T08:38:12.684Z,27.45
2023-09-18T08:40:41.297Z,27.71
2023-09-18T08:43:08.584Z,28.01
2023-09-18T08:45:48.122Z,28.22
2023-09-18T08:48:15.026Z,28.42
2023-09-18T08:50:43.078Z,28.65
2023-09-18T08:53:09.446Z,28.93
2023-09-18T08:55:36.358Z,29.14
2023-09-18T08:58:02.887Z,29.34
2023-09-18T09:00:29.554Z,29.50
2023-09-18T09:02:56.462Z,29.58
2023-09-18T09:05:23.717Z,29.72
2023-09-18T09:07:50.930Z,29.85
2023-09-18T09:10:17.958Z,29.97
2023-09-18T09:12:54.048Z,30.07
2023-09-18T09:15:23.697Z,30.15
2023-09-18T09:17:51.722Z,30.28
2023-09-18T09:20:19.323Z,30.41
2023-09-18T09:22:46.068Z,30.49
2023-09-18T09:25:33.786Z,30.52
2023-09-18T09:28:03.939Z,30.57
2023-09-18T09:30:30.574Z,30.75
2023-09-18T09:32:58.734Z,30.92
2023-09-18T09:35:28.069Z,31.14
2023-09-18T09:38:01.067Z,31.35
2023-09-18T09:40:29.579Z,31.56
2023-09-18T09:43:04.754Z,31.75
2023-09-18T09:45:38.606Z,31.87
2023-09-18T09:48:06.738Z,31.91
2023-09-18T09:50:48.730Z,31.98
2023-09-18T09:53:15.623Z,32.05
2023-09-18T09:55:42.294Z,32.07
2023-09-18T09:58:11.311Z,32.16
2023-09-18T10:00:41.176Z,32.31
2023-09-18T10:03:09.329Z,32.44
2023-09-18T10:05:38.353Z,32.60
2023-09-18T10:08:11.630Z,32.82
2023-09-18T10:10:47.449Z,32.99
2023-09-18T10:13:19.387Z,33.12
2023-09-18T10:18:27.327Z,33.49
2023-09-18T10:21:03.565Z,33.69
2023-09-18T10:23:59.062Z,33.85
2023-09-18T10:26:29.387Z,33.80
2023-09-18T10:29:00.241Z,33.71
2023-09-18T10:31:28.682Z,33.68
2023-09-18T10:34:00.978Z,33.56
2023-09-18T10:36:34.521Z,33.45
2023-09-18T10:39:02.940Z,33.33
2023-09-18T10:41:30.123Z,33.23
2023-09-18T10:43:58.898Z,33.34
2023-09-18T10:46:26.212Z,33.42
2023-09-18T10:48:54.509Z,33.30
2023-09-18T10:51:22.842Z,33.22
2023-09-18T10:53:52.901Z,33.18
2023-09-18T10:56:22.459Z,33.10
2023-09-18T10:59:05.282Z,33.20
2023-09-18T11:01:32.945Z,33.22
2023-09-18T11:04:03.669Z,33.17
2023-09-18T11:06:30.568Z,33.06
2023-09-18T11:09:04.438Z,33.08
2023-09-18T11:11:33.297Z,33.20
2023-09-18T11:14:01.866Z,33.17
2023-09-18T11:16:28.558Z,33.00
2023-09-18T11:19:01.401Z,32.86
2023-09-18T11:21:29.808Z,32.67
2023-09-18T11:23:59.817Z,32.58
2023-09-18T11:26:36.782Z,32.60
2023-09-18T11:29:09.808Z,32.74
2023-09-18T11:31:54.200Z,32.87
2023-09-18T11:34:22.341Z,32.90
2023-09-18T11:36:50.317Z,32.90
2023-09-18T11:39:38.638Z,32.85
2023-09-18T11:42:17.419Z,32.82
2023-09-18T11:44:46.870Z,32.74
2023-09-18T11:47:21.881Z,32.65
2023-09-18T11:49:54.819Z,32.60
2023-09-18T11:52:23.226Z,32.56
2023-09-18T11:54:50.509Z,32.48
2023-09-18T11:57:18.954Z,32.33
2023-09-18T11:59:46.798Z,32.20
2023-09-18T12:02:28.481Z,32.15
2023-09-18T12:04:55.490Z,32.10
2023-09-18T12:07:21.969Z,32.07
2023-09-18T12:09:48.373Z,32.02
2023-09-18T12:12:16.780Z,31.93
2023-09-18T12:14:43.169Z,31.80
2023-09-18T12:17:09.526Z,31.65
2023-09-18T12:19:35.890Z,31.50
2023-09-18T12:22:02.742Z,31.32
2023-09-18T12:24:29.313Z,31.13
2023-09-18T12:26:59.463Z,30.95
2023-09-18T12:29:25.883Z,30.75
2023-09-18T12:31:53.035Z,30.53
2023-09-18T12:34:23.996Z,30.36
2023-09-18T12:36:51.676Z,30.22
2023-09-18T12:39:21.611Z,30.15
2023-09-18T12:41:48.769Z,30.08
2023-09-18T12:44:17.043Z,29.94
2023-09-18T12:46:44.839Z,29.80
2023-09-18T12:49:21.759Z,29.64
2023-09-18T12:52:09.019Z,29.51
2023-09-18T12:54:39.219Z,29.47
2023-09-18T12:57:07.425Z,29.41
2023-09-18T12:59:36.196Z,29.34
2023-09-18T13:02:04.846Z,29.25
2023-09-18T13:04:41.193Z,29.21
2023-09-18T13:07:15.468Z,29.16
2023-09-18T13:09:41.845Z,29.12
2023-09-18T13:12:09.385Z,29.10
2023-09-18T13:14:58.741Z,29.13
2023-09-18T13:17:25.434Z,29.16
2023-09-18T13:19:51.786Z,29.20
2023-09-18T13:22:27.456Z,29.26
2023-09-18T13:24:57.644Z,29.31
2023-09-18T13:27:24.638Z,29.29
2023-09-18T13:29:54.513Z,29.20
2023-09-18T13:32:21.691Z,29.15
2023-09-18T13:34:48.731Z,29.17
2023-09-18T13:37:17.726Z,29.23
2023-09-18T13:39:44.078Z,29.30
2023-09-18T13:42:10.387Z,29.34
2023-09-18T13:44:37.464Z,29.38
2023-09-18T13:47:04.437Z,29.46
2023-09-18T13:49:30.894Z,29.52
2023-09-18T13:51:57.262Z,29.56
2023-09-18T13:54:23.608Z,29.56
2023-09-18T13:56:49.944Z,29.52
2023-09-18T13:59:16.310Z,29.43
2023-09-18T14:01:42.615Z,29.32
2023-09-18T14:04:09.318Z,29.25
2023-09-18T14:06:35.911Z,29.18
2023-09-18T14:09:06.033Z,29.06
2023-09-18T14:11:32.339Z,28.90
2023-09-18T14:13:58.615Z,28.80
2023-09-18T14:16:25.597Z,28.77
2023-09-18T14:18:54.444Z,28.71
2023-09-18T14:21:20.909Z,28.62
2023-09-18T14:23:47.656Z,28.50
2023-09-18T14:28:47.448Z,28.37
2023-09-18T14:31:13.815Z,28.34
2023-09-18T14:33:41.176Z,28.33
2023-09-18T14:36:07.672Z,28.30
2023-09-18T14:38:33.981Z,28.20
2023-09-18T14:41:03.293Z,28.06
2023-09-18T14:43:30.249Z,27.91
2023-09-18T14:45:57.505Z,27.75
2023-09-18T14:48:24.511Z,27.62
2023-09-18T14:50:55.020Z,27.51
2023-09-18T14:53:21.731Z,27.42
2023-09-18T14:55:49.343Z,27.32
2023-09-18T14:58:15.675Z,27.18
2023-09-18T15:00:42.590Z,27.08
2023-09-18T15:03:09.089Z,26.99
2023-09-18T15:05:35.908Z,26.91
2023-09-18T15:08:02.503Z,26.84
2023-09-18T15:10:29.102Z,26.78
2023-09-18T15:12:55.564Z,26.73
2023-09-18T15:15:22.169Z,26.68
2023-09-18T15:17:49.308Z,26.61
2023-09-18T15:20:17.806Z,26.57
2023-09-18T15:22:44.647Z,26.54
2023-09-18T15:25:11.279Z,26.51
2023-09-18T15:27:37.877Z,26.47
2023-09-18T15:30:07.366Z,26.42
2023-09-18T15:32:54.073Z,26.36
2023-09-18T15:35:24.740Z,26.29
2023-09-18T15:37:52.020Z,26.23
2023-09-18T15:40:21.099Z,26.16
2023-09-18T15:42:49.973Z,26.08
2023-09-18T15:45:16.330Z,26.01
2023-09-18T15:47:42.691Z,25.93
2023-09-18T15:50:10.558Z,25.85
2023-09-18T15:52:37.706Z,25.76
2023-09-18T15:55:05.947Z,25.68
2023-09-18T15:57:36.932Z,25.59
2023-09-18T16:00:05.252Z,25.51
2023-09-18T16:02:39.132Z,25.42
2023-09-18T16:05:06.400Z,25.34
2023-09-18T16:07:39.939Z,25.25
2023-09-18T16:10:07.820Z,25.17
2023-09-18T16:12:35.294Z,25.10
2023-09-18T16:15:03.406Z,25.02
2023-09-18T16:17:29.937Z,24.93
2023-09-18T16:19:58.336Z,24.86
2023-09-18T16:22:28.260Z,24.78
2023-09-18T16:24:54.745Z,24.68
2023-09-18T16:27:21.066Z,24.60
2023-09-18T16:29:47.462Z,24.52
2023-09-18T16:32:13.764Z,24.43
2023-09-18T16:34:40.322Z,24.35
2023-09-18T16:37:06.636Z,24.26
2023-09-18T16:39:32.924Z,24.18
2023-09-18T16:41:59.384Z,24.09
2023-09-18T16:44:25.840Z,24.00
2023-09-18T16:46:52.408Z,23.92
2023-09-18T16:49:22.705Z,23.83
2023-09-18T16:51:50.393Z,23.74
2023-09-18T16:54:19.097Z,23.66
2023-09-18T16:56:45.933Z,23.57
2023-09-18T16:59:13.048Z,23.49
2023-09-18T17:01:39.701Z,23.39
2023-09-18T17:04:07.101Z,23.31
2023-09-18T17:06:35.427Z,23.21
2023-09-18T17:09:08.713Z,23.12
2023-09-18T17:11:36.080Z,23.03
2023-09-18T17:14:02.489Z,22.94
2023-09-18T17:16:31.434Z,22.86
2023-09-18T17:18:57.925Z,22.78
2023-09-18T17:21:25.279Z,22.70
2023-09-18T17:23:52.092Z,22.62
2023-09-18T17:26:18.538Z,22.54
2023-09-18T17:28:45.499Z,22.47
2023-09-18T17:31:12.163Z,22.39
2023-09-18T17:33:39.197Z,22.30
2023-09-18T17:36:08.591Z,22.23
2023-09-18T17:38:36.271Z,22.16
2023-09-18T17:41:04.521Z,22.09
2023-09-18T17:43:32.427Z,22.01
2023-09-18T17:45:58.862Z,21.93
2023-09-18T17:48:25.395Z,21.85
2023-09-18T17:50:51.897Z,21.77
2023-09-18T17:53:18.449Z,21.68
2023-09-18T17:55:45.057Z,21.61
2023-09-18T17:58:11.541Z,21.53
2023-09-18T18:00:38.629Z,21.46
2023-09-18T18:03:05.419Z,21.38
2023-09-18T18:05:32.216Z,21.32
2023-09-18T18:07:59.268Z,21.29
2023-09-18T18:10:25.644Z,21.26
2023-09-18T18:12:52.044Z,21.24
2023-09-18T18:15:18.345Z,21.23
2023-09-18T18:17:45.069Z,21.23
2023-09-18T18:20:13.136Z,21.22
2023-09-18T18:22:40.516Z,21.21
2023-09-18T18:25:08.624Z,21.21
2023-09-18T18:27:35.141Z,21.19
2023-09-18T18:30:02.120Z,21.17
2023-09-18T18:32:28.707Z,21.15
2023-09-18T18:34:56.176Z,21.12
2023-09-18T18:37:22.971Z,21.09
2023-09-18T18:39:49.503Z,21.07
2023-09-18T18:42:15.792Z,21.04
2023-09-18T18:44:42.203Z,21.01
2023-09-18T18:47:08.640Z,20.99
2023-09-18T18:49:35.019Z,20.97
2023-09-18T18:52:03.431Z,20.96
2023-09-18T18:54:32.250Z,20.94
2023-09-18T18:56:58.690Z,20.91
2023-09-18T18:59:26.236Z,20.89
2023-09-18T19:01:55.903Z,20.85
2023-09-18T19:04:22.842Z,20.82
2023-09-18T19:06:49.202Z,20.79
2023-09-18T19:09:17.929Z,20.77
2023-09-18T19:11:44.269Z,20.74
2023-09-18T19:14:10.653Z,20.72
2023-09-18T19:16:37.069Z,20.70
2023-09-18T19:19:04.204Z,20.69
2023-09-18T19:21:30.797Z,20.67
2023-09-18T19:23:57.103Z,20.65
2023-09-18T19:26:23.490Z,20.63
2023-09-18T19:28:50.038Z,20.59
2023-09-18T19:31:22.419Z,20.55
2023-09-18T19:33:49.030Z,20.50
2023-09-18T19:36:17.648Z,20.44
2023-09-18T19:38:44.689Z,20.39
2023-09-18T19:41:11.859Z,20.33
2023-09-18T19:43:38.370Z,20.27
2023-09-18T19:46:04.989Z,20.20
2023-09-18T19:48:31.751Z,20.14
2023-09-18T19:50:59.986Z,20.11
2023-09-18T19:53:27.249Z,20.07
2023-09-18T19:55:53.918Z,20.04
2023-09-18T19:58:20.226Z,20.01
2023-09-18T20:00:46.928Z,19.98
2023-09-18T20:03:13.308Z,19.95
2023-09-18T20:05:39.892Z,19.92
2023-09-18T20:08:06.549Z,19.89
2023-09-18T20:10:33.478Z,19.86
2023-09-18T20:13:01.162Z,19.82
2023-09-18T20:15:30.926Z,19.80
2023-09-18T20:17:57.476Z,19.76
2023-09-18T20:20:26.552Z,19.73
2023-09-18T20:22:52.856Z,19.69
2023-09-18T20:25:19.341Z,19.65
2023-09-18T20:27:45.752Z,19.61
2023-09-18T20:30:16.378Z,19.57
2023-09-18T20:32:44.416Z,19.53
2023-09-18T20:35:12.333Z,19.49
2023-09-18T20:37:38.640Z,19.43
2023-09-18T20:40:06.913Z,19.39
2023-09-18T20:42:34.126Z,19.35
2023-09-18T20:45:00.787Z,19.31
2023-09-18T20:47:28.583Z,19.27
2023-09-18T20:49:56.366Z,19.24
2023-09-18T20:52:23.965Z,19.22
2023-09-18T20:54:51.690Z,19.20
2023-09-18T20:57:18.224Z,19.19
2023-09-18T20:59:45.597Z,19.16
2023-09-18T21:02:13.775Z,19.15
2023-09-18T21:04:40.607Z,19.13
2023-09-18T21:07:07.226Z,19.12
2023-09-18T21:09:33.921Z,19.10
2023-09-18T21:12:03.282Z,19.08
2023-09-18T21:14:30.966Z,19.05
2023-09-18T21:16:57.400Z,19.02
2023-09-18T21:19:23.783Z,18.99
2023-09-18T21:21:51.451Z,18.96
2023-09-18T21:24:18.112Z,18.93
2023-09-18T21:26:45.433Z,18.90
2023-09-18T21:29:11.844Z,18.85
2023-09-18T21:31:38.994Z,18.82
2023-09-18T21:34:05.438Z,18.77
2023-09-18T21:36:31.881Z,18.72
2023-09-18T21:38:58.238Z,18.68
2023-09-18T21:41:24.562Z,18.63
2023-09-18T21:43:50.878Z,18.59
2023-09-18T21:46:17.630Z,18.53
2023-09-18T21:48:44.680Z,18.49
2023-09-18T21:51:16.243Z,18.44
2023-09-18T21:53:43.444Z,18.41
2023-09-18T21:56:10.084Z,18.38
2023-09-18T21:58:36.567Z,18.35
2023-09-18T22:01:04.334Z,18.33
2023-09-18T22:03:36.607Z,18.30
2023-09-18T22:06:05.068Z,18.28
2023-09-18T22:08:32.309Z,18.26
2023-09-18T22:10:58.706Z,18.24
2023-09-18T22:13:25.088Z,18.20
2023-09-18T22:15:51.444Z,18.17
2023-09-18T22:18:17.985Z,18.14
2023-09-18T22:20:44.496Z,18.11
2023-09-18T22:23:13.700Z,18.07
2023-09-18T22:25:41.152Z,18.04
2023-09-18T22:28:08.207Z,18.01
2023-09-18T22:30:34.842Z,17.98
2023-09-18T22:33:03.171Z,17.95
2023-09-18T22:35:32.739Z,17.92
2023-09-18T22:38:20.897Z,17.88
2023-09-18T22:40:49.466Z,17.85
2023-09-18T22:43:53.697Z,17.81
2023-09-18T22:46:58.774Z,17.77
2023-09-18T22:50:05.272Z,17.73
2023-09-18T22:52:45.137Z,17.68
2023-09-18T22:55:18.083Z,17.66
2023-09-18T22:57:47.983Z,17.62
2023-09-18T23:00:17.391Z,17.60
2023-09-18T23:02:45.212Z,17.60
2023-09-18T23:05:14.811Z,17.59
2023-09-18T23:07:43.897Z,17.58
2023-09-18T23:10:12.813Z,17.57
2023-09-18T23:12:39.115Z,17.56
2023-09-18T23:15:11.720Z,17.55
2023-09-18T23:17:42.212Z,17.53
2023-09-18T23:20:12.160Z,17.52
2023-09-18T23:22:41.003Z,17.50
2023-09-18T23:25:12.473Z,17.48
2023-09-18T23:27:44.535Z,17.47
2023-09-18T23:30:17.743Z,17.46
2023-09-18T23:32:55.912Z,17.44
2023-09-18T23:35:22.244Z,17.43
2023-09-18T23:37:59.162Z,17.42
2023-09-18T23:40:32.029Z,17.41
2023-09-18T23:43:04.335Z,17.39
2023-09-18T23:45:38.387Z,17.36
2023-09-18T23:48:19.950Z,17.33
2023-09-18T23:50:51.616Z,17.29
2023-09-18T23:53:20.721Z,17.27
2023-09-18T23:55:49.896Z,17.25
2023-09-18T23:58:22.434Z,17.22
